sensor_id;sensor_type;location;lat;lon;timestamp;pressure;altitude;pressure_sealevel;temperature;humidity
30724;BME280;17473;52.286;20.930;2023-02-15T00:00:05;102053.28;;;5.15;88.92
30724;BME280;17473;52.286;20.930;2023-02-15T00:02:32;102060.03;;;5.34;87.85
30724;BME280;17473;52.286;20.930;2023-02-15T00:05:00;102054.00;;;5.35;87.80
30724;BME280;17473;52.286;20.930;2023-02-15T00:07:27;102053.72;;;5.42;87.19
30724;BME280;17473;52.286;20.930;2023-02-15T00:09:54;102054.41;;;5.29;87.92
30724;BME280;17473;52.286;20.930;2023-02-15T00:12:21;102053.28;;;5.15;88.54
30724;BME280;17473;52.286;20.930;2023-02-15T00:14:48;102053.78;;;5.22;88.79
30724;BME280;17473;52.286;20.930;2023-02-15T00:17:15;102048.03;;;5.26;88.36
30724;BME280;17473;52.286;20.930;2023-02-15T00:19:43;102050.78;;;5.17;88.84
30724;BME280;17473;52.286;20.930;2023-02-15T00:22:10;102043.94;;;5.29;88.44
30724;BME280;17473;52.286;20.930;2023-02-15T00:24:37;102043.47;;;5.23;88.76
30724;BME280;17473;52.286;20.930;2023-02-15T00:27:04;102043.47;;;5.23;88.69
30724;BME280;17473;52.286;20.930;2023-02-15T00:29:31;102039.00;;;5.22;88.95
30724;BME280;17473;52.286;20.930;2023-02-15T00:31:58;102032.34;;;5.15;89.04
30724;BME280;17473;52.286;20.930;2023-02-15T00:34:28;102036.00;;;5.17;89.03
30724;BME280;17473;52.286;20.930;2023-02-15T00:36:55;102033.09;;;5.25;88.91
30724;BME280;17473;52.286;20.930;2023-02-15T00:39:22;102035.22;;;5.19;89.24
30724;BME280;17473;52.286;20.930;2023-02-15T00:41:50;102035.59;;;5.23;89.46
30724;BME280;17473;52.286;20.930;2023-02-15T00:44:17;102028.75;;;5.25;89.17
30724;BME280;17473;52.286;20.930;2023-02-15T00:46:44;102020.00;;;5.25;89.15
30724;BME280;17473;52.286;20.930;2023-02-15T00:49:12;102019.31;;;5.27;88.91
30724;BME280;17473;52.286;20.930;2023-02-15T00:51:39;102018.75;;;5.42;88.40
30724;BME280;17473;52.286;20.930;2023-02-15T00:54:06;102010.81;;;5.52;87.51
30724;BME280;17473;52.286;20.930;2023-02-15T00:56:33;102020.41;;;5.74;86.65
30724;BME280;17473;52.286;20.930;2023-02-15T00:59:01;102012.34;;;5.60;87.18
30724;BME280;17473;52.286;20.930;2023-02-15T01:01:28;102014.72;;;5.35;88.46
30724;BME280;17473;52.286;20.930;2023-02-15T01:03:55;102012.47;;;5.40;88.21
30724;BME280;17473;52.286;20.930;2023-02-15T01:06:22;102016.72;;;5.49;87.64
30724;BME280;17473;52.286;20.930;2023-02-15T01:08:49;102010.00;;;5.31;88.58
30724;BME280;17473;52.286;20.930;2023-02-15T01:11:20;102008.84;;;5.27;88.72
30724;BME280;17473;52.286;20.930;2023-02-15T01:13:54;102006.09;;;5.26;88.79
30724;BME280;17473;52.286;20.930;2023-02-15T01:16:24;101999.66;;;5.32;88.51
30724;BME280;17473;52.286;20.930;2023-02-15T01:18:52;101998.22;;;5.36;88.29
30724;BME280;17473;52.286;20.930;2023-02-15T01:21:24;101997.28;;;5.58;87.97
30724;BME280;17473;52.286;20.930;2023-02-15T01:23:52;101991.81;;;5.55;87.53
30724;BME280;17473;52.286;20.930;2023-02-15T01:26:19;101997.91;;;5.43;87.86
30724;BME280;17473;52.286;20.930;2023-02-15T01:28:46;101993.59;;;5.33;88.52
30724;BME280;17473;52.286;20.930;2023-02-15T01:31:20;101989.72;;;5.28;88.78
30724;BME280;17473;52.286;20.930;2023-02-15T01:33:48;101986.59;;;5.55;88.30
30724;BME280;17473;52.286;20.930;2023-02-15T01:36:15;101995.91;;;5.51;87.74
30724;BME280;17473;52.286;20.930;2023-02-15T01:38:44;101984.91;;;5.45;88.24
30724;BME280;17473;52.286;20.930;2023-02-15T01:41:12;101984.91;;;5.67;87.49
30724;BME280;17473;52.286;20.930;2023-02-15T01:44:02;101983.97;;;5.55;87.75
30724;BME280;17473;52.286;20.930;2023-02-15T01:46:45;101983.75;;;5.63;87.14
30724;BME280;17473;52.286;20.930;2023-02-15T01:49:20;101983.72;;;5.52;87.35
30724;BME280;17473;52.286;20.930;2023-02-15T01:51:51;101995.53;;;5.46;87.74
30724;BME280;17473;52.286;20.930;2023-02-15T01:54:27;101991.56;;;5.52;87.86
30724;BME280;17473;52.286;20.930;2023-02-15T01:57:02;101983.28;;;5.35;88.42
30724;BME280;17473;52.286;20.930;2023-02-15T01:59:32;101986.00;;;5.37;88.33
30724;BME280;17473;52.286;20.930;2023-02-15T02:02:01;101984.31;;;5.37;88.71
30724;BME280;17473;52.286;20.930;2023-02-15T02:04:41;101973.75;;;5.47;88.25
30724;BME280;17473;52.286;20.930;2023-02-15T02:07:14;101970.50;;;5.50;87.75
30724;BME280;17473;52.286;20.930;2023-02-15T02:09:44;101977.72;;;5.42;88.47
30724;BME280;17473;52.286;20.930;2023-02-15T02:12:11;101974.59;;;5.46;87.87
30724;BME280;17473;52.286;20.930;2023-02-15T02:14:39;101971.38;;;5.51;87.78
30724;BME280;17473;52.286;20.930;2023-02-15T02:35:30;101955.25;;;5.34;88.66
30724;BME280;17473;52.286;20.930;2023-02-15T02:41:30;101952.63;;;5.56;87.66
30724;BME280;17473;52.286;20.930;2023-02-15T02:44:10;101951.41;;;5.41;88.24
30724;BME280;17473;52.286;20.930;2023-02-15T02:46:53;101945.03;;;5.37;88.53
30724;BME280;17473;52.286;20.930;2023-02-15T02:49:34;101951.16;;;5.38;88.37
30724;BME280;17473;52.286;20.930;2023-02-15T02:52:06;101952.25;;;5.52;87.76
30724;BME280;17473;52.286;20.930;2023-02-15T02:54:35;101950.78;;;5.33;88.36
30724;BME280;17473;52.286;20.930;2023-02-15T02:57:07;101945.56;;;5.33;88.57
30724;BME280;17473;52.286;20.930;2023-02-15T02:59:43;101949.91;;;5.32;88.65
30724;BME280;17473;52.286;20.930;2023-02-15T03:02:18;101949.44;;;5.38;88.64
30724;BME280;17473;52.286;20.930;2023-02-15T03:04:54;101943.19;;;5.36;88.45
30724;BME280;17473;52.286;20.930;2023-02-15T03:07:27;101946.22;;;5.53;87.82
30724;BME280;17473;52.286;20.930;2023-02-15T03:09:58;101951.06;;;5.36;88.19
30724;BME280;17473;52.286;20.930;2023-02-15T03:12:37;101947.03;;;5.29;88.45
30724;BME280;17473;52.286;20.930;2023-02-15T03:17:51;101935.50;;;5.27;88.51
30724;BME280;17473;52.286;20.930;2023-02-15T03:20:29;101945.56;;;5.33;88.58
30724;BME280;17473;52.286;20.930;2023-02-15T03:23:06;101940.56;;;5.36;88.49
30724;BME280;17473;52.286;20.930;2023-02-15T03:25:41;101938.91;;;5.26;88.67
30724;BME280;17473;52.286;20.930;2023-02-15T03:28:23;101943.25;;;5.26;88.65
30724;BME280;17473;52.286;20.930;2023-02-15T03:30:55;101949.75;;;5.31;88.60
30724;BME280;17473;52.286;20.930;2023-02-15T03:33:26;101948.44;;;5.36;88.27
30724;BME280;17473;52.286;20.930;2023-02-15T03:36:18;101957.06;;;5.35;88.40
30724;BME280;17473;52.286;20.930;2023-02-15T03:42:13;101943.84;;;5.33;88.15
30724;BME280;17473;52.286;20.930;2023-02-15T03:45:02;101954.75;;;5.28;88.55
30724;BME280;17473;52.286;20.930;2023-02-15T03:47:38;101951.63;;;5.22;88.93
30724;BME280;17473;52.286;20.930;2023-02-15T03:50:12;101948.38;;;5.24;89.11
30724;BME280;17473;52.286;20.930;2023-02-15T03:53:02;101944.66;;;5.32;88.50
30724;BME280;17473;52.286;20.930;2023-02-15T03:55:34;101930.19;;;5.38;88.29
30724;BME280;17473;52.286;20.930;2023-02-15T03:58:02;101936.78;;;5.32;88.80
30724;BME280;17473;52.286;20.930;2023-02-15T04:00:59;101925.00;;;5.27;88.57
30724;BME280;17473;52.286;20.930;2023-02-15T04:03:54;101931.97;;;5.27;88.83
30724;BME280;17473;52.286;20.930;2023-02-15T04:06:24;101931.41;;;5.31;88.75
30724;BME280;17473;52.286;20.930;2023-02-15T04:08:51;101932.56;;;5.35;88.68
30724;BME280;17473;52.286;20.930;2023-02-15T04:11:47;101931.09;;;5.38;88.19
30724;BME280;17473;52.286;20.930;2023-02-15T04:14:14;101928.69;;;5.29;88.53
30724;BME280;17473;52.286;20.930;2023-02-15T04:16:59;101927.09;;;5.31;88.60
30724;BME280;17473;52.286;20.930;2023-02-15T04:19:26;101929.94;;;5.35;88.45
30724;BME280;17473;52.286;20.930;2023-02-15T04:22:12;101928.56;;;5.28;88.57
30724;BME280;17473;52.286;20.930;2023-02-15T04:24:58;101931.41;;;5.31;88.60
30724;BME280;17473;52.286;20.930;2023-02-15T04:27:49;101927.41;;;5.46;88.10
30724;BME280;17473;52.286;20.930;2023-02-15T04:30:19;101925.94;;;5.50;87.65
30724;BME280;17473;52.286;20.930;2023-02-15T04:32:48;101924.16;;;5.39;87.77
30724;BME280;17473;52.286;20.930;2023-02-15T04:35:15;101921.97;;;5.33;88.08
30724;BME280;17473;52.286;20.930;2023-02-15T04:37:43;101925.50;;;5.33;88.23
30724;BME280;17473;52.286;20.930;2023-02-15T04:40:13;101926.53;;;5.36;88.31
30724;BME280;17473;52.286;20.930;2023-02-15T04:42:42;101924.59;;;5.33;88.15
30724;BME280;17473;52.286;20.930;2023-02-15T04:45:09;101926.78;;;5.39;88.23
30724;BME280;17473;52.286;20.930;2023-02-15T04:47:36;101924.22;;;5.28;88.25
30724;BME280;17473;52.286;20.930;2023-02-15T04:50:04;101923.75;;;5.22;88.51
30724;BME280;17473;52.286;20.930;2023-02-15T04:52:31;101922.41;;;5.27;88.70
30724;BME280;17473;52.286;20.930;2023-02-15T04:54:58;101920.34;;;5.23;88.46
30724;BME280;17473;52.286;20.930;2023-02-15T04:57:25;101919.34;;;5.33;88.46
30724;BME280;17473;52.286;20.930;2023-02-15T04:59:53;101920.97;;;5.43;87.68
30724;BME280;17473;52.286;20.930;2023-02-15T05:02:20;101916.47;;;5.30;88.39
30724;BME280;17473;52.286;20.930;2023-02-15T05:04:47;101921.81;;;5.42;87.88
30724;BME280;17473;52.286;20.930;2023-02-15T05:07:14;101931.94;;;5.37;87.65
30724;BME280;17473;52.286;20.930;2023-02-15T05:09:41;101935.44;;;5.38;87.48
30724;BME280;17473;52.286;20.930;2023-02-15T05:12:08;101931.41;;;5.31;87.90
30724;BME280;17473;52.286;20.930;2023-02-15T05:14:35;101927.91;;;5.30;87.94
30724;BME280;17473;52.286;20.930;2023-02-15T05:17:02;101936.97;;;5.24;88.19
30724;BME280;17473;52.286;20.930;2023-02-15T05:19:32;101949.31;;;5.37;87.71
30724;BME280;17473;52.286;20.930;2023-02-15T05:21:59;101943.25;;;5.48;87.11
30724;BME280;17473;52.286;20.930;2023-02-15T05:24:26;101954.75;;;5.28;88.12
30724;BME280;17473;52.286;20.930;2023-02-15T05:27:12;101951.06;;;5.36;88.09
30724;BME280;17473;52.286;20.930;2023-02-15T05:29:58;101947.03;;;5.29;87.95
30724;BME280;17473;52.286;20.930;2023-02-15T05:32:25;101947.81;;;5.28;88.28
30724;BME280;17473;52.286;20.930;2023-02-15T05:34:53;101946.13;;;5.29;88.11
30724;BME280;17473;52.286;20.930;2023-02-15T05:37:20;101951.78;;;5.23;88.27
30724;BME280;17473;52.286;20.930;2023-02-15T05:39:47;101945.19;;;5.28;88.10
30724;BME280;17473;52.286;20.930;2023-02-15T05:42:14;101948.59;;;5.27;88.14
30724;BME280;17473;52.286;20.930;2023-02-15T05:44:41;101942.44;;;5.27;88.23
30724;BME280;17473;52.286;20.930;2023-02-15T05:47:08;101941.66;;;5.28;87.68
30724;BME280;17473;52.286;20.930;2023-02-15T05:49:35;101941.72;;;5.40;87.49
30724;BME280;17473;52.286;20.930;2023-02-15T05:52:03;101944.94;;;5.47;86.99
30724;BME280;17473;52.286;20.930;2023-02-15T05:54:30;101946.03;;;5.39;86.74
30724;BME280;17473;52.286;20.930;2023-02-15T05:56:58;101939.69;;;5.25;87.93
30724;BME280;17473;52.286;20.930;2023-02-15T05:59:25;101953.59;;;5.24;88.19
30724;BME280;17473;52.286;20.930;2023-02-15T06:01:52;101947.66;;;5.37;87.52
30724;BME280;17473;52.286;20.930;2023-02-15T06:04:19;101951.16;;;5.38;87.41
30724;BME280;17473;52.286;20.930;2023-02-15T06:06:46;101948.75;;;5.29;87.43
30724;BME280;17473;52.286;20.930;2023-02-15T06:09:13;101943.50;;;5.29;87.27
30724;BME280;17473;52.286;20.930;2023-02-15T06:11:41;101939.69;;;5.25;87.52
30724;BME280;17473;52.286;20.930;2023-02-15T06:14:08;101947.03;;;5.29;87.70
30724;BME280;17473;52.286;20.930;2023-02-15T06:16:35;101947.19;;;5.21;87.53
30724;BME280;17473;52.286;20.930;2023-02-15T06:19:03;101943.34;;;5.27;87.71
30724;BME280;17473;52.286;20.930;2023-02-15T06:21:30;101951.50;;;5.20;87.53
30724;BME280;17473;52.286;20.930;2023-02-15T06:23:58;101957.16;;;5.14;87.92
30724;BME280;17473;52.286;20.930;2023-02-15T06:26:25;101949.44;;;5.16;87.87
30724;BME280;17473;52.286;20.930;2023-02-15T06:28:52;101955.56;;;5.27;87.69
30724;BME280;17473;52.286;20.930;2023-02-15T06:31:19;101948.75;;;5.29;87.20
30724;BME280;17473;52.286;20.930;2023-02-15T06:33:46;101950.84;;;5.23;87.63
30724;BME280;17473;52.286;20.930;2023-02-15T06:36:13;101952.16;;;5.28;87.32
30724;BME280;17473;52.286;20.930;2023-02-15T06:38:41;101954.94;;;5.41;87.23
30724;BME280;17473;52.286;20.930;2023-02-15T06:41:08;101959.38;;;5.42;86.82
30724;BME280;17473;52.286;20.930;2023-02-15T06:43:35;101955.25;;;5.34;86.86
30724;BME280;17473;52.286;20.930;2023-02-15T06:46:02;101960.59;;;5.36;86.88
30724;BME280;17473;52.286;20.930;2023-02-15T06:48:30;101956.28;;;5.36;86.56
30724;BME280;17473;52.286;20.930;2023-02-15T06:50:57;101958.59;;;5.21;87.42
30724;BME280;17473;52.286;20.930;2023-02-15T06:53:24;101956.66;;;5.19;87.69
30724;BME280;17473;52.286;20.930;2023-02-15T06:55:51;101956.34;;;5.26;87.41
30724;BME280;17473;52.286;20.930;2023-02-15T06:58:18;101959.75;;;5.25;87.25
30724;BME280;17473;52.286;20.930;2023-02-15T07:00:45;101945.88;;;5.26;87.38
30724;BME280;17473;52.286;20.930;2023-02-15T07:03:13;101951.63;;;5.22;87.42
30724;BME280;17473;52.286;20.930;2023-02-15T07:05:41;101949.09;;;5.56;86.45
30724;BME280;17473;52.286;20.930;2023-02-15T07:08:08;101954.31;;;5.33;86.76
30724;BME280;17473;52.286;20.930;2023-02-15T07:10:36;101946.19;;;5.41;86.81
30724;BME280;17473;52.286;20.930;2023-02-15T07:13:03;101955.50;;;5.37;86.58
30724;BME280;17473;52.286;20.930;2023-02-15T07:15:30;101949.81;;;5.43;86.26
30724;BME280;17473;52.286;20.930;2023-02-15T07:17:57;101951.28;;;5.39;86.24
30724;BME280;17473;52.286;20.930;2023-02-15T07:20:25;101946.72;;;5.37;86.43
30724;BME280;17473;52.286;20.930;2023-02-15T07:22:53;101937.75;;;5.23;86.97
30724;BME280;17473;52.286;20.930;2023-02-15T07:25:20;101945.19;;;5.28;87.21
30724;BME280;17473;52.286;20.930;2023-02-15T07:27:47;101938.16;;;5.39;86.53
30724;BME280;17473;52.286;20.930;2023-02-15T07:30:16;101941.84;;;5.41;86.38
30724;BME280;17473;52.286;20.930;2023-02-15T07:32:45;101937.69;;;5.33;86.15
30724;BME280;17473;52.286;20.930;2023-02-15T07:35:32;101934.91;;;5.42;85.53
30724;BME280;17473;52.286;20.930;2023-02-15T07:38:00;101930.69;;;5.44;85.40
30724;BME280;17473;52.286;20.930;2023-02-15T07:40:27;101939.78;;;5.37;85.54
30724;BME280;17473;52.286;20.930;2023-02-15T07:42:58;101941.00;;;5.30;85.70
30724;BME280;17473;52.286;20.930;2023-02-15T07:45:26;101935.38;;;5.48;85.41
30724;BME280;17473;52.286;20.930;2023-02-15T07:47:53;101935.38;;;5.48;84.65
30724;BME280;17473;52.286;20.930;2023-02-15T07:50:20;101934.03;;;5.31;85.61
30724;BME280;17473;52.286;20.930;2023-02-15T07:52:47;101931.56;;;5.32;85.96
30724;BME280;17473;52.286;20.930;2023-02-15T07:55:15;101930.50;;;5.30;85.89
30724;BME280;17473;52.286;20.930;2023-02-15T07:57:47;101934.16;;;5.55;85.45
30724;BME280;17473;52.286;20.930;2023-02-15T08:00:17;101931.78;;;5.58;85.10
30724;BME280;17473;52.286;20.930;2023-02-15T08:02:49;101926.41;;;5.56;85.31
30724;BME280;17473;52.286;20.930;2023-02-15T08:05:37;101924.78;;;5.46;85.38
30724;BME280;17473;52.286;20.930;2023-02-15T08:08:04;101930.25;;;5.49;84.91
30724;BME280;17473;52.286;20.930;2023-02-15T08:10:32;101918.25;;;5.41;85.04
30724;BME280;17473;52.286;20.930;2023-02-15T08:13:18;101926.69;;;5.37;85.04
30724;BME280;17473;52.286;20.930;2023-02-15T08:15:51;101919.09;;;5.30;85.36
30724;BME280;17473;52.286;20.930;2023-02-15T08:18:18;101921.97;;;5.33;85.40
30724;BME280;17473;52.286;20.930;2023-02-15T08:20:51;101913.06;;;5.31;85.37
30724;BME280;17473;52.286;20.930;2023-02-15T08:23:18;101918.63;;;5.24;85.55
30724;BME280;17473;52.286;20.930;2023-02-15T08:25:45;101917.22;;;5.17;86.04
30724;BME280;17473;52.286;20.930;2023-02-15T08:28:12;101914.97;;;5.22;86.18
30724;BME280;17473;52.286;20.930;2023-02-15T08:30:39;101915.53;;;5.17;86.20
30724;BME280;17473;52.286;20.930;2023-02-15T08:33:06;101912.72;;;5.26;85.75
30724;BME280;17473;52.286;20.930;2023-02-15T08:35:34;101919.19;;;5.20;86.19
30724;BME280;17473;52.286;20.930;2023-02-15T08:38:01;101910.09;;;5.26;85.84
30724;BME280;17473;52.286;20.930;2023-02-15T08:40:28;101914.06;;;5.21;85.86
30724;BME280;17473;52.286;20.930;2023-02-15T08:42:55;101916.13;;;5.25;85.83
30724;BME280;17473;52.286;20.930;2023-02-15T08:45:22;101908.16;;;5.24;85.89
30724;BME280;17473;52.286;20.930;2023-02-15T08:47:53;101904.84;;;5.26;86.16
30724;BME280;17473;52.286;20.930;2023-02-15T08:50:20;101908.09;;;5.34;85.86
30724;BME280;17473;52.286;20.930;2023-02-15T08:52:47;101904.47;;;5.22;86.00
30724;BME280;17473;52.286;20.930;2023-02-15T08:55:14;101900.28;;;5.24;85.73
30724;BME280;17473;52.286;20.930;2023-02-15T08:57:42;101891.75;;;5.26;85.81
30724;BME280;17473;52.286;20.930;2023-02-15T09:00:12;101893.09;;;5.21;85.95
30724;BME280;17473;52.286;20.930;2023-02-15T09:02:42;101895.41;;;5.28;85.61
30724;BME280;17473;52.286;20.930;2023-02-15T09:05:09;101896.47;;;5.30;85.57
30724;BME280;17473;52.286;20.930;2023-02-15T09:07:36;101893.28;;;5.35;85.30
30724;BME280;17473;52.286;20.930;2023-02-15T09:10:04;101896.69;;;5.33;85.26
30724;BME280;17473;52.286;20.930;2023-02-15T09:12:31;101892.00;;;5.29;85.28
30724;BME280;17473;52.286;20.930;2023-02-15T09:14:58;101895.53;;;5.30;85.37
30724;BME280;17473;52.286;20.930;2023-02-15T09:17:25;101886.66;;;5.28;85.05
30724;BME280;17473;52.286;20.930;2023-02-15T09:19:52;101885.63;;;5.26;85.27
30724;BME280;17473;52.286;20.930;2023-02-15T09:22:19;101881.63;;;5.31;84.94
30724;BME280;17473;52.286;20.930;2023-02-15T09:24:46;101879.34;;;5.24;84.94
30724;BME280;17473;52.286;20.930;2023-02-15T09:27:14;101879.59;;;5.27;84.97
30724;BME280;17473;52.286;20.930;2023-02-15T09:29:41;101878.22;;;5.32;84.31
30724;BME280;17473;52.286;20.930;2023-02-15T09:32:08;101884.16;;;5.29;84.55
30724;BME280;17473;52.286;20.930;2023-02-15T09:34:35;101882.56;;;5.31;84.12
30724;BME280;17473;52.286;20.930;2023-02-15T09:37:02;101881.63;;;5.31;84.01
30724;BME280;17473;52.286;20.930;2023-02-15T09:39:29;101885.72;;;5.27;83.92
30724;BME280;17473;52.286;20.930;2023-02-15T09:42:38;101883.09;;;5.27;83.54
30724;BME280;17473;52.286;20.930;2023-02-15T09:48:44;101880.81;;;5.20;83.63
30724;BME280;17473;52.286;20.930;2023-02-15T09:51:32;101879.75;;;5.18;83.33
30724;BME280;17473;52.286;20.930;2023-02-15T09:57:16;101876.47;;;5.21;83.06
30724;BME280;17473;52.286;20.930;2023-02-15T10:02:50;101874.78;;;5.21;83.15
30724;BME280;17473;52.286;20.930;2023-02-15T10:05:48;101870.25;;;5.30;82.73
30724;BME280;17473;52.286;20.930;2023-02-15T10:28:50;101848.25;;;5.28;82.67
30724;BME280;17473;52.286;20.930;2023-02-15T10:31:49;101854.59;;;5.42;82.47
30724;BME280;17473;52.286;20.930;2023-02-15T10:34:39;101847.34;;;5.50;82.21
30724;BME280;17473;52.286;20.930;2023-02-15T10:51:00;101830.28;;;5.33;83.83
30724;BME280;17473;52.286;20.930;2023-02-15T10:56:34;101830.03;;;5.30;84.12
30724;BME280;17473;52.286;20.930;2023-02-15T11:04:48;101818.44;;;5.38;83.79
30724;BME280;17473;52.286;20.930;2023-02-15T11:07:43;101816.41;;;5.34;83.82
30724;BME280;17473;52.286;20.930;2023-02-15T11:13:34;101816.28;;;5.32;83.24
30724;BME280;17473;52.286;20.930;2023-02-15T11:16:20;101816.50;;;5.36;83.09
30724;BME280;17473;52.286;20.930;2023-02-15T11:19:14;101809.59;;;5.36;82.70
30724;BME280;17473;52.286;20.930;2023-02-15T11:21:50;101815.72;;;5.37;82.64
30724;BME280;17473;52.286;20.930;2023-02-15T11:24:20;101812.31;;;5.38;82.43
30724;BME280;17473;52.286;20.930;2023-02-15T11:26:59;101806.03;;;5.36;82.31
30724;BME280;17473;52.286;20.930;2023-02-15T11:32:33;101807.38;;;5.30;81.93
30724;BME280;17473;52.286;20.930;2023-02-15T11:35:06;101808.28;;;5.31;82.19
30724;BME280;17473;52.286;20.930;2023-02-15T11:40:27;101813.66;;;5.32;82.35
30724;BME280;17473;52.286;20.930;2023-02-15T11:43:10;101803.84;;;5.30;82.39
30724;BME280;17473;52.286;20.930;2023-02-15T11:45:42;101803.66;;;5.39;82.11
30724;BME280;17473;52.286;20.930;2023-02-15T11:48:15;101801.41;;;5.43;82.00
30724;BME280;17473;52.286;20.930;2023-02-15T11:50:44;101801.94;;;5.39;82.37
30724;BME280;17473;52.286;20.930;2023-02-15T11:53:18;101793.53;;;5.43;82.22
30724;BME280;17473;52.286;20.930;2023-02-15T11:55:49;101795.13;;;5.41;82.32
30724;BME280;17473;52.286;20.930;2023-02-15T12:01:31;101786.66;;;5.33;82.61
30724;BME280;17473;52.286;20.930;2023-02-15T12:04:30;101798.88;;;5.45;82.76
30724;BME280;17473;52.286;20.930;2023-02-15T12:07:17;101787.84;;;5.49;82.54
30724;BME280;17473;52.286;20.930;2023-02-15T12:10:00;101784.88;;;5.44;82.95
30724;BME280;17473;52.286;20.930;2023-02-15T12:12:34;101771.78;;;5.44;82.95
30724;BME280;17473;52.286;20.930;2023-02-15T12:15:06;101766.72;;;5.36;83.17
30724;BME280;17473;52.286;20.930;2023-02-15T12:17:53;101771.00;;;5.45;83.19
30724;BME280;17473;52.286;20.930;2023-02-15T12:20:29;101768.47;;;5.47;82.96
30724;BME280;17473;52.286;20.930;2023-02-15T12:23:05;101759.47;;;5.43;83.38
30724;BME280;17473;52.286;20.930;2023-02-15T12:25:57;101758.19;;;5.38;83.75
30724;BME280;17473;52.286;20.930;2023-02-15T12:28:35;101756.50;;;5.39;83.77
30724;BME280;17473;52.286;20.930;2023-02-15T12:31:44;101758.09;;;5.48;83.67
30724;BME280;17473;52.286;20.930;2023-02-15T12:34:22;101751.28;;;5.51;83.68
30724;BME280;17473;52.286;20.930;2023-02-15T12:36:53;101753.66;;;5.47;83.57
30724;BME280;17473;52.286;20.930;2023-02-15T12:39:30;101746.69;;;5.36;84.11
30724;BME280;17473;52.286;20.930;2023-02-15T12:42:21;101745.22;;;5.40;84.12
30724;BME280;17473;52.286;20.930;2023-02-15T12:45:04;101739.41;;;5.44;84.10
30724;BME280;17473;52.286;20.930;2023-02-15T12:47:45;101735.09;;;5.44;84.27
30724;BME280;17473;52.286;20.930;2023-02-15T12:50:24;101726.19;;;5.30;84.77
30724;BME280;17473;52.286;20.930;2023-02-15T12:53:34;101727.88;;;5.30;84.95
30724;BME280;17473;52.286;20.930;2023-02-15T12:56:04;101718.59;;;5.45;85.00
30724;BME280;17473;52.286;20.930;2023-02-15T12:58:40;101711.63;;;5.46;84.77
30724;BME280;17473;52.286;20.930;2023-02-15T13:01:24;101717.66;;;5.45;85.05
30724;BME280;17473;52.286;20.930;2023-02-15T13:06:22;101714.69;;;5.52;85.21
30724;BME280;17473;52.286;20.930;2023-02-15T13:08:56;101719.81;;;5.51;85.22
30724;BME280;17473;52.286;20.930;2023-02-15T13:11:30;101707.31;;;5.58;84.50
30724;BME280;17473;52.286;20.930;2023-02-15T13:14:30;101705.38;;;5.56;84.65
30724;BME280;17473;52.286;20.930;2023-02-15T13:17:02;101695.91;;;5.58;84.31
30724;BME280;17473;52.286;20.930;2023-02-15T13:19:53;101709.81;;;5.57;84.85
30724;BME280;17473;52.286;20.930;2023-02-15T13:22:39;101699.66;;;5.61;84.54
30724;BME280;17473;52.286;20.930;2023-02-15T13:25:19;101690.09;;;5.62;84.56
30724;BME280;17473;52.286;20.930;2023-02-15T13:27:55;101694.91;;;5.68;84.32
30724;BME280;17473;52.286;20.930;2023-02-15T13:30:40;101690.78;;;5.71;84.17
30724;BME280;17473;52.286;20.930;2023-02-15T13:36:38;101681.78;;;5.68;84.46
30724;BME280;17473;52.286;20.930;2023-02-15T13:42:36;101672.66;;;5.74;83.74
30724;BME280;17473;52.286;20.930;2023-02-15T13:48:46;101683.38;;;5.77;82.89
30724;BME280;17473;52.286;20.930;2023-02-15T13:51:35;101686.69;;;5.87;82.67
30724;BME280;17473;52.286;20.930;2023-02-15T14:00:31;101681.53;;;5.88;82.69
30724;BME280;17473;52.286;20.930;2023-02-15T14:11:38;101674.94;;;5.70;83.42
30724;BME280;17473;52.286;20.930;2023-02-15T14:17:17;101662.75;;;5.70;83.50
30724;BME280;17473;52.286;20.930;2023-02-15T14:19:58;101659.56;;;5.62;83.59
30724;BME280;17473;52.286;20.930;2023-02-15T14:22:36;101657.06;;;5.64;83.59
30724;BME280;17473;52.286;20.930;2023-02-15T14:25:38;101659.91;;;5.55;84.03
30724;BME280;17473;52.286;20.930;2023-02-15T14:28:46;101661.50;;;5.53;84.27
30724;BME280;17473;52.286;20.930;2023-02-15T14:31:21;101664.47;;;5.58;84.02
30724;BME280;17473;52.286;20.930;2023-02-15T14:33:57;101655.91;;;5.48;84.41
30724;BME280;17473;52.286;20.930;2023-02-15T14:36:27;101664.69;;;5.49;84.52
30724;BME280;17473;52.286;20.930;2023-02-15T14:42:36;101654.09;;;5.47;84.35
30724;BME280;17473;52.286;20.930;2023-02-15T14:48:20;101655.00;;;5.60;84.09
30724;BME280;17473;52.286;20.930;2023-02-15T14:50:51;101659.13;;;5.56;83.90
30724;BME280;17473;52.286;20.930;2023-02-15T14:56:17;101646.72;;;5.42;84.43
30724;BME280;17473;52.286;20.930;2023-02-15T15:01:33;101643.06;;;5.40;84.83
30724;BME280;17473;52.286;20.930;2023-02-15T15:04:12;101627.69;;;5.32;85.04
30724;BME280;17473;52.286;20.930;2023-02-15T15:06:42;101635.75;;;5.36;84.82
30724;BME280;17473;52.286;20.930;2023-02-15T15:09:27;101629.38;;;5.44;84.66
30724;BME280;17473;52.286;20.930;2023-02-15T15:12:37;101635.63;;;5.34;84.87
30724;BME280;17473;52.286;20.930;2023-02-15T15:15:06;101623.34;;;5.21;85.46
30724;BME280;17473;52.286;20.930;2023-02-15T15:22:35;101621.50;;;5.20;85.32
30724;BME280;17473;52.286;20.930;2023-02-15T15:28:00;101622.75;;;5.13;85.73
30724;BME280;17473;52.286;20.930;2023-02-15T15:50:34;101610.69;;;5.27;84.93
30724;BME280;17473;52.286;20.930;2023-02-15T15:53:02;101604.75;;;5.30;84.85
30724;BME280;17473;52.286;20.930;2023-02-15T15:55:32;101607.72;;;5.23;85.12
30724;BME280;17473;52.286;20.930;2023-02-15T15:58:05;101605.91;;;5.22;84.88
30724;BME280;17473;52.286;20.930;2023-02-15T16:03:05;101606.25;;;5.14;84.63
30724;BME280;17473;52.286;20.930;2023-02-15T16:05:37;101604.91;;;5.20;83.86